| time (UTC) | temp F | wind direction | speed MPH | gust MPH | rain 1hr in | rain 24hr in | rain mn in | humidity % | barometer mb |
| 20260505224004 | 0 | 264 | 1.0 | 1.0 | 0.00 | 0.00 | 0.00 | ||
| 20260505203502 | 0 | 168 | 2.0 | 0.0 | 0.00 | 0.00 | 0.00 | ||
| 20260505202757 | 83 | 256 | 2.0 | 5.0 | 0.00 | 0.00 | 0.00 | 76 | 1006.0 |
| 20260505202155 | 0 | 264 | 2.0 | 2.0 | 0.00 | 0.00 | 0.00 | ||
| 20260505192142 | 0 | 168 | 3.0 | 3.0 | 0.00 | 0.00 | 0.00 | ||
| 20260505172511 | 0 | 0.0 | 0.0 | 0.00 | 0.00 | 0.00 | |||
| 20260505153139 | 0 | 242 | 0.0 | 0.0 | 0.00 | 0.00 | 0.00 | ||
| 20260505110740 | 0 | 240 | 0.0 | 0.0 | 0.00 | 0.00 | 0.00 | ||
| 20260505092638 | 0 | 207 | 1.0 | 1.0 | 0.00 | 0.00 | 0.00 | ||
| 20260505075715 | 0 | 209 | 0.0 | 2.0 | 0.00 | 0.00 | 0.00 | ||
| 20260505075214 | 0 | 0 | 0.0 | 0.0 | 0.00 | 0.00 | 0.00 | ||
| 20260505065757 | 0 | 155 | 3.0 | 3.0 | 0.00 | 0.00 | 0.00 | ||
| 20260505064838 | 0 | 232 | 0.0 | 0.0 | 0.00 | 0.00 | 0.00 | ||
| 20260505052448 | 71 | 233 | 1.0 | 2.0 | 0.00 | 0.00 | 0.00 | 84 | 1008.4 |
| 20260505051239 | 0 | 185 | 1.0 | 1.0 | 0.00 | 0.00 | 0.00 | ||
| 20260505050409 | 72 | 185 | 1.0 | 2.0 | 0.00 | 0.00 | 0.00 | 82 | 1008.5 |
| 20260505015552 | 74 | 208 | 3.0 | 7.0 | 0.00 | 0.00 | 0.00 | 76 | 1008.6 |
| 20260505014406 | 0 | 0.0 | 0.0 | 0.00 | 0.00 | 0.00 | |||
| 20260505005620 | 0 | 0.0 | 0.0 | 0.00 | 0.00 | 0.00 | |||
| 20260505005342 | 0 | 155 | 1.0 | 1.0 | 0.00 | 0.00 | 0.00 | ||
| 20260505004309 | 0 | 0.0 | 0.0 | 0.00 | 0.00 | 0.00 | |||
| 20260505001830 | 0 | 0.0 | 0.0 | 0.00 | 0.00 | 0.00 | |||
| 20260504234811 | 78 | 186 | 4.0 | 6.0 | 0.00 | 0.00 | 0.00 | 69 | 1008.2 |
| 20260504233818 | 0 | 181 | 5.0 | 5.0 | 0.00 | 0.00 | 0.00 | ||
| 20260504233316 | 0 | 187 | 5.0 | 5.0 | 0.00 | 0.00 | 0.00 |